createdAt,value
2023-04-01T00:04:08.506Z,9.15
2023-04-01T00:09:11.341Z,12.95
2023-04-01T00:14:15.611Z,9.18
2023-04-01T00:19:18.306Z,10.38
2023-04-01T00:24:21.064Z,8.60
2023-04-01T00:29:30.169Z,11.48
2023-04-01T00:34:32.968Z,11.32
2023-04-01T00:39:37.437Z,8.73
2023-04-01T00:44:42.135Z,11.73
2023-04-01T00:49:48.602Z,12.70
2023-04-01T00:54:57.897Z,11.50
2023-04-01T01:00:02.235Z,13.48
2023-04-01T01:05:06.593Z,9.30
2023-04-01T01:10:16.573Z,12.02
2023-04-01T01:15:26.625Z,9.30
2023-04-01T01:20:57.524Z,10.07
2023-04-01T01:26:19.300Z,10.10
2023-04-01T01:31:27.141Z,10.50
2023-04-01T01:36:35.621Z,13.48
2023-04-01T01:41:43.900Z,10.07
2023-04-01T01:46:47.748Z,8.55
2023-04-01T01:51:51.844Z,8.95
2023-04-01T01:57:08.460Z,8.90
2023-04-01T02:02:14.958Z,8.88
2023-04-01T02:07:24.288Z,8.30
2023-04-01T02:12:27.351Z,10.55
2023-04-01T02:17:33.348Z,10.68
2023-04-01T02:22:43.819Z,9.65
2023-04-01T02:27:48.241Z,12.75
2023-04-01T02:32:51.645Z,9.77
2023-04-01T02:37:57.067Z,10.77
2023-04-01T02:43:00.042Z,10.88
2023-04-01T02:48:02.838Z,10.90
2023-04-01T02:53:07.288Z,10.18
2023-04-01T02:58:10.363Z,9.60
2023-04-01T03:03:14.572Z,13.45
2023-04-01T03:08:18.768Z,12.55
2023-04-01T03:13:21.532Z,11.65
2023-04-01T03:18:24.365Z,12.40
2023-04-01T03:23:28.965Z,10.35
2023-04-01T03:28:31.710Z,12.73
2023-04-01T03:33:34.985Z,13.23
2023-04-01T03:38:39.198Z,12.90
2023-04-01T03:43:42.054Z,13.50
2023-04-01T03:48:44.910Z,11.63
2023-04-01T03:53:49.195Z,12.18
2023-04-01T03:58:51.994Z,11.52
2023-04-01T04:03:55.458Z,11.75
2023-04-01T04:09:01.355Z,13.57
2023-04-01T04:14:06.422Z,12.48
2023-04-01T04:19:09.447Z,9.15
2023-04-01T04:24:14.026Z,10.65
2023-04-01T04:29:35.355Z,14.98
2023-04-01T04:34:38.400Z,12.00
2023-04-01T04:39:42.600Z,17.75
2023-04-01T04:44:45.538Z,15.05
2023-04-01T04:49:48.342Z,12.82
2023-04-01T04:54:52.533Z,13.20
2023-04-01T04:59:55.522Z,14.00
2023-04-01T05:05:27.548Z,13.38
2023-04-01T05:10:32.415Z,16.58
2023-04-01T05:15:35.467Z,16.25
2023-04-01T05:20:38.736Z,12.38
2023-04-01T05:25:43.073Z,13.68
2023-04-01T05:30:46.506Z,14.20
2023-04-01T05:36:08.378Z,15.27
2023-04-01T05:41:12.518Z,11.32
2023-04-01T05:46:19.187Z,4.72
2023-04-01T05:51:27.888Z,1.80
2023-04-01T05:56:31.975Z,2.30
2023-04-01T06:01:35.719Z,2.45
2023-04-01T06:06:38.643Z,2.00
2023-04-01T06:11:59.674Z,2.45
2023-04-01T06:17:25.662Z,1.48
2023-04-01T06:23:03.977Z,2.67
2023-04-01T06:28:40.423Z,2.40
2023-04-01T06:33:59.142Z,2.05
2023-04-01T06:39:17.951Z,1.92
2023-04-01T06:44:31.164Z,1.43
2023-04-01T06:50:01.597Z,1.88
2023-04-01T06:55:27.956Z,2.00
2023-04-01T07:00:58.365Z,1.15
2023-04-01T07:06:05.271Z,4.22
2023-04-01T07:11:18.743Z,1.70
2023-04-01T07:16:46.080Z,1.40
2023-04-01T07:21:52.078Z,1.67
2023-04-01T07:27:03.679Z,1.65
2023-04-01T07:32:24.283Z,2.60
2023-04-01T07:37:33.053Z,1.73
2023-04-01T07:42:47.704Z,1.50
2023-04-01T07:48:08.938Z,2.22
2023-04-01T07:53:20.317Z,2.55
2023-04-01T07:58:36.599Z,1.85
2023-04-01T08:04:00.420Z,0.82
2023-04-01T08:09:11.258Z,1.30
2023-04-01T08:14:57.966Z,1.55
2023-04-01T08:20:30.030Z,2.67
2023-04-01T08:25:36.170Z,2.33
2023-04-01T08:30:44.868Z,2.47
2023-04-01T08:35:55.045Z,2.45
2023-04-01T08:41:20.697Z,1.45
2023-04-01T08:47:22.372Z,1.95
2023-04-01T08:52:36.664Z,1.55
2023-04-01T08:57:54.029Z,2.00
2023-04-01T09:04:00.773Z,2.28
2023-04-01T09:09:36.203Z,1.52
2023-04-01T09:15:20.433Z,1.55
2023-04-01T09:20:43.618Z,1.02
2023-04-01T09:26:07.101Z,1.30
2023-04-01T09:31:27.519Z,2.00
2023-04-01T09:37:03.188Z,1.30
2023-04-01T09:42:28.013Z,1.50
2023-04-01T09:47:59.347Z,0.88
2023-04-01T09:53:16.698Z,2.13
2023-04-01T09:59:03.989Z,1.70
2023-04-01T10:05:06.479Z,1.92
2023-04-01T10:10:46.943Z,1.23
2023-04-01T10:16:22.921Z,2.22
2023-04-01T10:21:59.944Z,2.33
2023-04-01T10:27:23.282Z,3.38
2023-04-01T10:33:29.912Z,1.77
2023-04-01T10:39:06.115Z,2.10
2023-04-01T10:44:51.044Z,1.02
2023-04-01T10:50:28.145Z,1.48
2023-04-01T10:56:13.468Z,2.30
2023-04-01T11:02:11.342Z,2.28
2023-04-01T11:08:26.860Z,1.55
2023-04-01T11:14:01.527Z,1.90
2023-04-01T11:19:27.003Z,0.75
2023-04-01T11:24:59.713Z,1.40
2023-04-01T11:30:31.185Z,2.40
2023-04-01T11:36:16.333Z,1.50
2023-04-01T11:41:32.611Z,1.25
2023-04-01T11:47:07.403Z,2.03
2023-04-01T11:52:28.124Z,2.65
2023-04-01T11:57:53.096Z,3.30
2023-04-01T12:03:14.185Z,3.95
2023-04-01T12:08:33.477Z,3.40
2023-04-01T12:13:46.676Z,5.40
2023-04-01T12:18:56.507Z,4.65
2023-04-01T12:24:27.022Z,5.07
2023-04-01T12:29:54.540Z,4.78
2023-04-01T12:35:15.132Z,4.68
2023-04-01T12:41:02.884Z,6.28
2023-04-01T12:46:17.257Z,5.28
2023-04-01T12:51:33.086Z,7.10
2023-04-01T12:56:45.410Z,5.32
2023-04-01T13:02:03.584Z,6.13
2023-04-01T13:07:28.397Z,7.07
2023-04-01T13:12:51.777Z,6.57
2023-04-01T13:18:05.554Z,5.90
2023-04-01T13:23:21.165Z,6.93
2023-04-01T13:28:27.898Z,7.30
2023-04-01T13:33:41.254Z,4.10
2023-04-01T13:39:05.154Z,6.50
2023-04-01T13:44:14.997Z,5.72
2023-04-01T13:49:51.404Z,5.22
2023-04-01T13:55:20.510Z,9.80
2023-04-01T14:00:35.910Z,5.00
2023-04-01T14:05:53.618Z,6.43
2023-04-01T14:11:15.365Z,6.63
2023-04-01T14:16:36.074Z,6.57
2023-04-01T14:21:48.153Z,7.63
2023-04-01T14:27:14.629Z,8.05
2023-04-01T14:32:29.272Z,5.32
2023-04-01T14:38:19.373Z,8.35
2023-04-01T14:43:53.895Z,5.78
2023-04-01T14:49:02.050Z,7.93
2023-04-01T14:54:10.218Z,6.13
2023-04-01T14:59:28.372Z,5.47
2023-04-01T15:04:49.734Z,9.05
2023-04-01T15:10:01.373Z,8.95
2023-04-01T15:15:25.944Z,9.23
2023-04-01T15:20:47.627Z,8.75
2023-04-01T15:26:09.788Z,9.95
2023-04-01T15:31:17.929Z,10.18
2023-04-01T15:36:31.090Z,13.07
2023-04-01T15:41:43.627Z,9.48
2023-04-01T15:46:50.727Z,9.88
2023-04-01T15:52:05.123Z,10.88
2023-04-01T15:57:30.886Z,13.50
2023-04-01T16:02:40.546Z,13.77
2023-04-01T16:07:57.344Z,10.85
2023-04-01T16:13:12.494Z,11.73
2023-04-01T16:18:42.802Z,11.50
2023-04-01T16:23:50.690Z,13.88
2023-04-01T16:28:59.755Z,13.65
2023-04-01T16:34:11.047Z,14.82
2023-04-01T16:39:32.051Z,12.20
2023-04-01T16:44:50.648Z,10.65
2023-04-01T16:50:00.360Z,9.65
2023-04-01T16:55:14.491Z,13.18
2023-04-01T17:00:25.885Z,11.27
2023-04-01T17:05:44.369Z,11.82
2023-04-01T17:10:59.029Z,16.80
2023-04-01T17:16:16.869Z,15.95
2023-04-01T17:21:27.732Z,11.30
2023-04-01T17:26:39.288Z,11.15
2023-04-01T17:31:48.360Z,11.90
2023-04-01T17:37:08.616Z,14.77
2023-04-01T17:42:16.814Z,13.15
2023-04-01T17:47:41.128Z,7.28
2023-04-01T17:52:50.740Z,13.38
2023-04-01T17:58:02.567Z,12.82
2023-04-01T18:03:19.147Z,15.77
2023-04-01T18:08:38.973Z,15.05
2023-04-01T18:14:25.557Z,11.38
2023-04-01T18:19:37.987Z,8.30
2023-04-01T18:24:48.092Z,8.80
2023-04-01T18:29:54.273Z,6.68
2023-04-01T18:35:04.530Z,7.05
2023-04-01T18:40:23.432Z,8.25
2023-04-01T18:45:30.971Z,8.18
2023-04-01T18:50:45.406Z,7.03
2023-04-01T18:55:54.968Z,8.82
2023-04-01T19:01:18.315Z,7.55
2023-04-01T19:06:26.886Z,8.75
2023-04-01T19:11:41.210Z,9.27
2023-04-01T19:16:55.353Z,9.75
2023-04-01T19:22:41.901Z,10.98
2023-04-01T19:27:51.566Z,10.73
2023-04-01T19:33:03.602Z,10.98
2023-04-01T19:38:12.630Z,10.13
2023-04-01T19:43:29.478Z,7.18
2023-04-01T19:48:46.631Z,9.73
2023-04-01T19:54:00.406Z,8.30
2023-04-01T19:59:12.785Z,8.25
2023-04-01T20:04:19.165Z,10.52
2023-04-01T20:09:40.737Z,8.93
2023-04-01T20:14:49.149Z,10.38
2023-04-01T20:19:59.831Z,8.00
2023-04-01T20:25:13.804Z,10.40
2023-04-01T20:30:55.444Z,10.55
2023-04-01T20:36:08.553Z,6.80
2023-04-01T20:41:15.408Z,9.20
2023-04-01T20:46:24.605Z,6.00
2023-04-01T20:51:31.862Z,6.18
2023-04-01T20:56:47.294Z,9.43
2023-04-01T21:02:00.163Z,9.13
2023-04-01T21:07:13.132Z,7.40
2023-04-01T21:12:29.481Z,6.97
2023-04-01T21:17:44.006Z,5.30
2023-04-01T21:23:01.152Z,5.82
2023-04-01T21:28:20.013Z,6.63
2023-04-01T21:33:39.515Z,9.57
2023-04-01T21:38:58.146Z,6.97
2023-04-01T21:49:48.587Z,7.70
2023-04-01T21:55:34.528Z,7.50
2023-04-01T22:00:40.925Z,6.75
2023-04-01T22:05:53.399Z,8.15
2023-04-01T22:11:04.477Z,8.52
2023-04-01T22:16:16.330Z,8.02
2023-04-01T22:21:28.048Z,7.28
2023-04-01T22:26:38.718Z,5.30
2023-04-01T22:31:47.253Z,6.85
2023-04-01T22:36:58.370Z,5.65
2023-04-01T22:42:12.544Z,4.95
2023-04-01T22:47:25.704Z,4.40
2023-04-01T22:52:37.758Z,7.72
2023-04-01T22:57:46.861Z,4.60
2023-04-01T23:03:03.755Z,6.32
2023-04-01T23:08:47.068Z,5.20
2023-04-01T23:13:54.761Z,5.93
2023-04-01T23:19:04.711Z,5.07
2023-04-01T23:24:18.981Z,6.03
2023-04-01T23:29:23.124Z,7.38
2023-04-01T23:34:33.898Z,5.88
2023-04-01T23:39:40.447Z,7.47
2023-04-01T23:44:45.365Z,5.45
2023-04-01T23:49:51.521Z,4.28
2023-04-01T23:54:58.546Z,5.88
